sensor_id;sensor_type;location;lat;lon;timestamp;P1;durP1;ratioP1;P2;durP2;ratioP2
21862;SDS011;11096;51.338;12.524;2022-11-20T00:01:04;12.43;;;7.35;;
21862;SDS011;11096;51.338;12.524;2022-11-20T00:03:30;14.95;;;7.15;;
21862;SDS011;11096;51.338;12.524;2022-11-20T00:05:59;14.27;;;7.40;;
21862;SDS011;11096;51.338;12.524;2022-11-20T00:08:25;15.80;;;7.35;;
21862;SDS011;11096;51.338;12.524;2022-11-20T00:10:51;15.73;;;7.07;;
21862;SDS011;11096;51.338;12.524;2022-11-20T00:13:16;13.07;;;6.85;;
21862;SDS011;11096;51.338;12.524;2022-11-20T00:15:41;15.73;;;7.97;;
21862;SDS011;11096;51.338;12.524;2022-11-20T00:18:07;14.93;;;7.13;;
21862;SDS011;11096;51.338;12.524;2022-11-20T00:20:32;20.60;;;7.68;;
21862;SDS011;11096;51.338;12.524;2022-11-20T00:22:58;16.73;;;7.97;;
21862;SDS011;11096;51.338;12.524;2022-11-20T00:25:23;17.30;;;7.82;;
21862;SDS011;11096;51.338;12.524;2022-11-20T00:27:48;19.48;;;7.68;;
21862;SDS011;11096;51.338;12.524;2022-11-20T00:30:14;12.63;;;6.38;;
21862;SDS011;11096;51.338;12.524;2022-11-20T00:32:39;16.65;;;8.50;;
21862;SDS011;11096;51.338;12.524;2022-11-20T00:35:04;16.58;;;7.53;;
21862;SDS011;11096;51.338;12.524;2022-11-20T00:37:30;17.85;;;7.38;;
21862;SDS011;11096;51.338;12.524;2022-11-20T00:39:55;17.25;;;8.32;;
21862;SDS011;11096;51.338;12.524;2022-11-20T00:42:21;14.27;;;6.97;;
21862;SDS011;11096;51.338;12.524;2022-11-20T00:44:46;16.70;;;7.75;;
21862;SDS011;11096;51.338;12.524;2022-11-20T00:47:11;17.92;;;7.93;;
21862;SDS011;11096;51.338;12.524;2022-11-20T00:49:37;18.90;;;7.90;;
21862;SDS011;11096;51.338;12.524;2022-11-20T00:52:02;15.25;;;7.43;;
21862;SDS011;11096;51.338;12.524;2022-11-20T00:54:28;18.15;;;7.70;;
21862;SDS011;11096;51.338;12.524;2022-11-20T00:56:53;17.58;;;8.48;;
21862;SDS011;11096;51.338;12.524;2022-11-20T00:59:18;18.48;;;7.25;;
21862;SDS011;11096;51.338;12.524;2022-11-20T01:01:44;16.50;;;7.43;;
21862;SDS011;11096;51.338;12.524;2022-11-20T01:04:09;18.02;;;7.53;;
21862;SDS011;11096;51.338;12.524;2022-11-20T01:06:36;16.38;;;7.80;;
21862;SDS011;11096;51.338;12.524;2022-11-20T01:09:03;18.73;;;7.65;;
21862;SDS011;11096;51.338;12.524;2022-11-20T01:11:41;18.33;;;7.30;;
21862;SDS011;11096;51.338;12.524;2022-11-20T01:14:12;17.42;;;7.93;;
21862;SDS011;11096;51.338;12.524;2022-11-20T01:16:40;13.95;;;7.60;;
21862;SDS011;11096;51.338;12.524;2022-11-20T01:19:10;15.43;;;7.35;;
21862;SDS011;11096;51.338;12.524;2022-11-20T01:21:39;16.10;;;6.78;;
21862;SDS011;11096;51.338;12.524;2022-11-20T01:24:06;20.40;;;8.02;;
21862;SDS011;11096;51.338;12.524;2022-11-20T01:26:35;12.05;;;6.63;;
21862;SDS011;11096;51.338;12.524;2022-11-20T01:29:02;15.80;;;7.90;;
21862;SDS011;11096;51.338;12.524;2022-11-20T01:31:30;15.20;;;6.85;;
21862;SDS011;11096;51.338;12.524;2022-11-20T01:33:59;19.90;;;8.80;;
21862;SDS011;11096;51.338;12.524;2022-11-20T01:36:29;16.15;;;7.10;;
21862;SDS011;11096;51.338;12.524;2022-11-20T01:39:00;16.17;;;7.47;;
21862;SDS011;11096;51.338;12.524;2022-11-20T01:41:29;18.05;;;7.70;;
21862;SDS011;11096;51.338;12.524;2022-11-20T01:44:16;15.88;;;8.05;;
21862;SDS011;11096;51.338;12.524;2022-11-20T01:47:00;16.85;;;7.22;;
21862;SDS011;11096;51.338;12.524;2022-11-20T01:49:32;17.75;;;7.60;;
21862;SDS011;11096;51.338;12.524;2022-11-20T01:52:07;21.83;;;9.00;;
21862;SDS011;11096;51.338;12.524;2022-11-20T01:54:42;13.73;;;7.10;;
21862;SDS011;11096;51.338;12.524;2022-11-20T01:57:13;17.08;;;7.57;;
21862;SDS011;11096;51.338;12.524;2022-11-20T01:59:43;13.95;;;7.40;;
21862;SDS011;11096;51.338;12.524;2022-11-20T02:02:12;16.50;;;6.57;;
21862;SDS011;11096;51.338;12.524;2022-11-20T02:04:38;21.02;;;7.68;;
21862;SDS011;11096;51.338;12.524;2022-11-20T02:07:03;17.15;;;7.68;;
21862;SDS011;11096;51.338;12.524;2022-11-20T02:09:30;17.42;;;7.40;;
21862;SDS011;11096;51.338;12.524;2022-11-20T02:11:55;21.27;;;7.72;;
21862;SDS011;11096;51.338;12.524;2022-11-20T02:14:22;17.10;;;7.68;;
21862;SDS011;11096;51.338;12.524;2022-11-20T02:16:49;18.60;;;7.57;;
21862;SDS011;11096;51.338;12.524;2022-11-20T02:24:30;18.13;;;8.10;;
21862;SDS011;11096;51.338;12.524;2022-11-20T02:27:00;16.90;;;7.25;;
21862;SDS011;11096;51.338;12.524;2022-11-20T02:29:34;14.38;;;7.25;;
21862;SDS011;11096;51.338;12.524;2022-11-20T02:32:04;12.73;;;7.13;;
21862;SDS011;11096;51.338;12.524;2022-11-20T02:34:30;20.20;;;8.20;;
21862;SDS011;11096;51.338;12.524;2022-11-20T02:36:56;16.17;;;7.82;;
21862;SDS011;11096;51.338;12.524;2022-11-20T02:39:24;18.35;;;7.68;;
21862;SDS011;11096;51.338;12.524;2022-11-20T02:41:55;19.30;;;7.35;;
21862;SDS011;11096;51.338;12.524;2022-11-20T02:44:21;22.08;;;8.57;;
21862;SDS011;11096;51.338;12.524;2022-11-20T02:46:47;19.50;;;7.90;;
21862;SDS011;11096;51.338;12.524;2022-11-20T02:49:12;18.17;;;7.35;;
21862;SDS011;11096;51.338;12.524;2022-11-20T02:51:38;17.85;;;8.27;;
21862;SDS011;11096;51.338;12.524;2022-11-20T02:54:03;17.77;;;8.32;;
21862;SDS011;11096;51.338;12.524;2022-11-20T02:56:29;18.42;;;8.02;;
21862;SDS011;11096;51.338;12.524;2022-11-20T02:58:54;19.85;;;8.50;;
21862;SDS011;11096;51.338;12.524;2022-11-20T03:01:20;16.15;;;7.82;;
21862;SDS011;11096;51.338;12.524;2022-11-20T03:03:45;18.73;;;8.40;;
21862;SDS011;11096;51.338;12.524;2022-11-20T03:06:13;18.00;;;7.82;;
21862;SDS011;11096;51.338;12.524;2022-11-20T03:08:39;18.60;;;8.10;;
21862;SDS011;11096;51.338;12.524;2022-11-20T03:11:05;18.95;;;9.35;;
21862;SDS011;11096;51.338;12.524;2022-11-20T03:13:31;20.20;;;9.52;;
21862;SDS011;11096;51.338;12.524;2022-11-20T03:15:57;22.50;;;9.93;;
21862;SDS011;11096;51.338;12.524;2022-11-20T03:18:22;23.00;;;9.75;;
21862;SDS011;11096;51.338;12.524;2022-11-20T03:20:48;18.00;;;8.63;;
21862;SDS011;11096;51.338;12.524;2022-11-20T03:23:13;20.90;;;9.43;;
21862;SDS011;11096;51.338;12.524;2022-11-20T03:25:38;18.55;;;9.13;;
21862;SDS011;11096;51.338;12.524;2022-11-20T03:28:04;20.63;;;9.02;;
21862;SDS011;11096;51.338;12.524;2022-11-20T03:30:29;23.38;;;9.40;;
21862;SDS011;11096;51.338;12.524;2022-11-20T03:32:55;23.63;;;9.02;;
21862;SDS011;11096;51.338;12.524;2022-11-20T03:35:20;22.40;;;9.68;;
21862;SDS011;11096;51.338;12.524;2022-11-20T03:37:45;24.55;;;9.55;;
21862;SDS011;11096;51.338;12.524;2022-11-20T03:40:11;21.60;;;9.65;;
21862;SDS011;11096;51.338;12.524;2022-11-20T03:42:37;28.02;;;9.57;;
21862;SDS011;11096;51.338;12.524;2022-11-20T03:45:15;23.00;;;9.73;;
21862;SDS011;11096;51.338;12.524;2022-11-20T03:47:42;22.27;;;9.77;;
21862;SDS011;11096;51.338;12.524;2022-11-20T03:50:09;20.83;;;9.80;;
21862;SDS011;11096;51.338;12.524;2022-11-20T03:52:38;20.92;;;10.32;;
21862;SDS011;11096;51.338;12.524;2022-11-20T03:55:03;22.88;;;9.75;;
21862;SDS011;11096;51.338;12.524;2022-11-20T03:57:29;21.52;;;9.85;;
21862;SDS011;11096;51.338;12.524;2022-11-20T03:59:55;19.70;;;9.52;;
21862;SDS011;11096;51.338;12.524;2022-11-20T04:02:20;19.65;;;9.63;;
21862;SDS011;11096;51.338;12.524;2022-11-20T04:04:46;24.70;;;10.63;;
21862;SDS011;11096;51.338;12.524;2022-11-20T04:07:11;17.98;;;8.98;;
21862;SDS011;11096;51.338;12.524;2022-11-20T04:09:36;20.98;;;8.80;;
21862;SDS011;11096;51.338;12.524;2022-11-20T04:12:02;23.45;;;10.10;;
21862;SDS011;11096;51.338;12.524;2022-11-20T04:14:27;19.30;;;9.50;;
21862;SDS011;11096;51.338;12.524;2022-11-20T04:16:53;22.15;;;9.88;;
21862;SDS011;11096;51.338;12.524;2022-11-20T04:19:18;25.75;;;11.55;;
21862;SDS011;11096;51.338;12.524;2022-11-20T04:21:44;25.60;;;10.70;;
21862;SDS011;11096;51.338;12.524;2022-11-20T04:24:09;24.80;;;10.18;;
21862;SDS011;11096;51.338;12.524;2022-11-20T04:26:38;21.95;;;8.75;;
21862;SDS011;11096;51.338;12.524;2022-11-20T04:29:04;23.95;;;10.18;;
21862;SDS011;11096;51.338;12.524;2022-11-20T04:31:30;22.00;;;9.77;;
21862;SDS011;11096;51.338;12.524;2022-11-20T04:34:01;24.60;;;10.27;;
21862;SDS011;11096;51.338;12.524;2022-11-20T04:36:31;21.50;;;9.50;;
21862;SDS011;11096;51.338;12.524;2022-11-20T04:38:58;23.95;;;10.10;;
21862;SDS011;11096;51.338;12.524;2022-11-20T04:41:26;26.42;;;10.30;;
21862;SDS011;11096;51.338;12.524;2022-11-20T04:43:55;19.35;;;9.82;;
21862;SDS011;11096;51.338;12.524;2022-11-20T04:46:24;26.48;;;10.50;;
21862;SDS011;11096;51.338;12.524;2022-11-20T04:48:50;23.10;;;10.18;;
21862;SDS011;11096;51.338;12.524;2022-11-20T04:51:16;25.02;;;9.05;;
21862;SDS011;11096;51.338;12.524;2022-11-20T04:53:41;25.63;;;9.25;;
21862;SDS011;11096;51.338;12.524;2022-11-20T04:56:08;24.02;;;9.68;;
21862;SDS011;11096;51.338;12.524;2022-11-20T04:58:36;22.42;;;9.73;;
21862;SDS011;11096;51.338;12.524;2022-11-20T05:01:06;28.13;;;11.23;;
21862;SDS011;11096;51.338;12.524;2022-11-20T05:03:34;27.60;;;10.15;;
21862;SDS011;11096;51.338;12.524;2022-11-20T05:06:00;24.55;;;9.57;;
21862;SDS011;11096;51.338;12.524;2022-11-20T05:08:27;19.20;;;9.00;;
21862;SDS011;11096;51.338;12.524;2022-11-20T05:10:53;25.65;;;9.82;;
21862;SDS011;11096;51.338;12.524;2022-11-20T05:13:18;22.63;;;10.40;;
21862;SDS011;11096;51.338;12.524;2022-11-20T05:15:44;25.67;;;9.38;;
21862;SDS011;11096;51.338;12.524;2022-11-20T05:18:09;18.13;;;8.77;;
21862;SDS011;11096;51.338;12.524;2022-11-20T05:20:34;23.02;;;9.18;;
21862;SDS011;11096;51.338;12.524;2022-11-20T05:23:01;22.65;;;9.25;;
21862;SDS011;11096;51.338;12.524;2022-11-20T05:25:26;17.83;;;8.57;;
21862;SDS011;11096;51.338;12.524;2022-11-20T05:27:52;22.15;;;9.52;;
21862;SDS011;11096;51.338;12.524;2022-11-20T05:30:18;18.50;;;7.75;;
21862;SDS011;11096;51.338;12.524;2022-11-20T05:32:44;18.65;;;8.20;;
21862;SDS011;11096;51.338;12.524;2022-11-20T05:35:09;23.02;;;8.20;;
21862;SDS011;11096;51.338;12.524;2022-11-20T05:37:34;20.67;;;8.63;;
21862;SDS011;11096;51.338;12.524;2022-11-20T05:40:00;21.20;;;8.88;;
21862;SDS011;11096;51.338;12.524;2022-11-20T05:42:25;16.92;;;7.70;;
21862;SDS011;11096;51.338;12.524;2022-11-20T05:45:00;18.95;;;9.30;;
21862;SDS011;11096;51.338;12.524;2022-11-20T05:47:28;21.40;;;8.80;;
21862;SDS011;11096;51.338;12.524;2022-11-20T05:49:56;20.75;;;9.00;;
21862;SDS011;11096;51.338;12.524;2022-11-20T05:52:21;21.48;;;8.35;;
21862;SDS011;11096;51.338;12.524;2022-11-20T05:54:47;19.60;;;9.38;;
21862;SDS011;11096;51.338;12.524;2022-11-20T05:57:12;22.80;;;9.95;;
21862;SDS011;11096;51.338;12.524;2022-11-20T05:59:37;17.98;;;8.68;;
21862;SDS011;11096;51.338;12.524;2022-11-20T06:02:03;19.17;;;8.20;;
21862;SDS011;11096;51.338;12.524;2022-11-20T06:04:28;26.13;;;8.82;;
21862;SDS011;11096;51.338;12.524;2022-11-20T06:06:54;22.08;;;8.65;;
21862;SDS011;11096;51.338;12.524;2022-11-20T06:09:19;18.50;;;8.98;;
21862;SDS011;11096;51.338;12.524;2022-11-20T06:11:44;21.50;;;8.38;;
21862;SDS011;11096;51.338;12.524;2022-11-20T06:14:10;17.02;;;7.25;;
21862;SDS011;11096;51.338;12.524;2022-11-20T06:16:35;21.55;;;8.52;;
21862;SDS011;11096;51.338;12.524;2022-11-20T06:19:01;21.15;;;8.18;;
21862;SDS011;11096;51.338;12.524;2022-11-20T06:21:26;21.50;;;8.65;;
21862;SDS011;11096;51.338;12.524;2022-11-20T06:23:52;16.35;;;7.65;;
21862;SDS011;11096;51.338;12.524;2022-11-20T06:26:25;17.40;;;8.88;;
21862;SDS011;11096;51.338;12.524;2022-11-20T06:28:52;19.83;;;9.13;;
21862;SDS011;11096;51.338;12.524;2022-11-20T06:31:20;21.25;;;8.75;;
21862;SDS011;11096;51.338;12.524;2022-11-20T06:33:46;18.98;;;8.43;;
21862;SDS011;11096;51.338;12.524;2022-11-20T06:36:13;20.77;;;8.35;;
21862;SDS011;11096;51.338;12.524;2022-11-20T06:38:40;18.25;;;8.65;;
21862;SDS011;11096;51.338;12.524;2022-11-20T06:41:10;23.20;;;8.60;;
21862;SDS011;11096;51.338;12.524;2022-11-20T06:43:38;24.00;;;8.23;;
21862;SDS011;11096;51.338;12.524;2022-11-20T06:46:04;20.55;;;8.52;;
21862;SDS011;11096;51.338;12.524;2022-11-20T06:48:29;22.00;;;8.43;;
21862;SDS011;11096;51.338;12.524;2022-11-20T06:50:55;22.98;;;10.48;;
21862;SDS011;11096;51.338;12.524;2022-11-20T06:53:23;21.45;;;8.30;;
21862;SDS011;11096;51.338;12.524;2022-11-20T06:55:49;18.65;;;8.15;;
21862;SDS011;11096;51.338;12.524;2022-11-20T06:58:15;19.55;;;9.25;;
21862;SDS011;11096;51.338;12.524;2022-11-20T07:00:41;21.05;;;9.43;;
21862;SDS011;11096;51.338;12.524;2022-11-20T07:03:07;23.17;;;8.18;;
21862;SDS011;11096;51.338;12.524;2022-11-20T07:05:34;21.95;;;8.32;;
21862;SDS011;11096;51.338;12.524;2022-11-20T07:08:00;21.58;;;8.52;;
21862;SDS011;11096;51.338;12.524;2022-11-20T07:10:26;18.55;;;8.88;;
21862;SDS011;11096;51.338;12.524;2022-11-20T07:12:52;21.30;;;9.68;;
21862;SDS011;11096;51.338;12.524;2022-11-20T07:15:19;19.95;;;8.65;;
21862;SDS011;11096;51.338;12.524;2022-11-20T07:17:45;23.20;;;10.18;;
21862;SDS011;11096;51.338;12.524;2022-11-20T07:20:11;24.20;;;8.88;;
21862;SDS011;11096;51.338;12.524;2022-11-20T07:22:37;20.75;;;8.75;;
21862;SDS011;11096;51.338;12.524;2022-11-20T07:25:02;19.33;;;8.38;;
21862;SDS011;11096;51.338;12.524;2022-11-20T07:27:29;23.02;;;8.75;;
21862;SDS011;11096;51.338;12.524;2022-11-20T07:29:54;20.27;;;9.25;;
21862;SDS011;11096;51.338;12.524;2022-11-20T07:32:20;20.17;;;9.27;;
21862;SDS011;11096;51.338;12.524;2022-11-20T07:34:46;20.75;;;9.05;;
21862;SDS011;11096;51.338;12.524;2022-11-20T07:37:12;25.27;;;9.52;;
21862;SDS011;11096;51.338;12.524;2022-11-20T07:39:37;21.65;;;8.98;;
21862;SDS011;11096;51.338;12.524;2022-11-20T07:42:03;20.88;;;9.90;;
21862;SDS011;11096;51.338;12.524;2022-11-20T07:44:28;24.17;;;8.32;;
21862;SDS011;11096;51.338;12.524;2022-11-20T07:46:54;22.73;;;7.95;;
21862;SDS011;11096;51.338;12.524;2022-11-20T07:49:19;22.83;;;9.10;;
21862;SDS011;11096;51.338;12.524;2022-11-20T07:51:44;22.40;;;8.35;;
21862;SDS011;11096;51.338;12.524;2022-11-20T07:54:10;25.75;;;10.05;;
21862;SDS011;11096;51.338;12.524;2022-11-20T07:56:35;23.55;;;9.13;;
21862;SDS011;11096;51.338;12.524;2022-11-20T07:59:01;22.05;;;8.98;;
21862;SDS011;11096;51.338;12.524;2022-11-20T08:01:26;17.85;;;8.57;;
21862;SDS011;11096;51.338;12.524;2022-11-20T08:03:51;23.83;;;9.10;;
21862;SDS011;11096;51.338;12.524;2022-11-20T08:06:17;31.42;;;10.77;;
21862;SDS011;11096;51.338;12.524;2022-11-20T08:08:44;26.45;;;10.07;;
21862;SDS011;11096;51.338;12.524;2022-11-20T08:11:09;21.70;;;9.23;;
21862;SDS011;11096;51.338;12.524;2022-11-20T08:13:53;26.63;;;10.80;;
21862;SDS011;11096;51.338;12.524;2022-11-20T08:16:40;27.75;;;10.88;;
21862;SDS011;11096;51.338;12.524;2022-11-20T08:19:07;22.45;;;9.32;;
21862;SDS011;11096;51.338;12.524;2022-11-20T08:21:33;28.35;;;11.32;;
21862;SDS011;11096;51.338;12.524;2022-11-20T08:23:59;23.05;;;11.05;;
21862;SDS011;11096;51.338;12.524;2022-11-20T08:26:24;22.33;;;10.75;;
21862;SDS011;11096;51.338;12.524;2022-11-20T08:28:56;21.10;;;10.40;;
21862;SDS011;11096;51.338;12.524;2022-11-20T08:31:22;23.08;;;10.95;;
21862;SDS011;11096;51.338;12.524;2022-11-20T08:33:49;26.52;;;10.40;;
21862;SDS011;11096;51.338;12.524;2022-11-20T08:36:15;25.55;;;11.35;;
21862;SDS011;11096;51.338;12.524;2022-11-20T08:38:41;24.90;;;10.75;;
21862;SDS011;11096;51.338;12.524;2022-11-20T08:41:07;25.10;;;11.60;;
21862;SDS011;11096;51.338;12.524;2022-11-20T08:43:58;26.85;;;10.45;;
21862;SDS011;11096;51.338;12.524;2022-11-20T08:46:26;23.50;;;10.68;;
21862;SDS011;11096;51.338;12.524;2022-11-20T08:48:55;24.88;;;11.52;;
21862;SDS011;11096;51.338;12.524;2022-11-20T08:51:21;33.53;;;12.57;;
21862;SDS011;11096;51.338;12.524;2022-11-20T08:53:46;28.00;;;11.27;;
21862;SDS011;11096;51.338;12.524;2022-11-20T08:56:13;24.10;;;11.40;;
21862;SDS011;11096;51.338;12.524;2022-11-20T08:58:39;23.63;;;11.75;;
21862;SDS011;11096;51.338;12.524;2022-11-20T09:01:05;24.25;;;10.88;;
21862;SDS011;11096;51.338;12.524;2022-11-20T09:03:30;23.38;;;11.55;;
21862;SDS011;11096;51.338;12.524;2022-11-20T09:05:56;27.10;;;11.55;;
21862;SDS011;11096;51.338;12.524;2022-11-20T09:08:26;30.20;;;12.75;;
21862;SDS011;11096;51.338;12.524;2022-11-20T09:10:53;27.80;;;11.45;;
21862;SDS011;11096;51.338;12.524;2022-11-20T09:13:19;27.27;;;11.63;;
21862;SDS011;11096;51.338;12.524;2022-11-20T09:15:46;29.27;;;11.68;;
21862;SDS011;11096;51.338;12.524;2022-11-20T09:18:11;22.50;;;10.98;;
21862;SDS011;11096;51.338;12.524;2022-11-20T09:20:38;24.52;;;10.35;;
21862;SDS011;11096;51.338;12.524;2022-11-20T09:23:03;22.23;;;11.38;;
21862;SDS011;11096;51.338;12.524;2022-11-20T09:25:29;25.33;;;12.05;;
21862;SDS011;11096;51.338;12.524;2022-11-20T09:27:57;23.20;;;10.85;;
21862;SDS011;11096;51.338;12.524;2022-11-20T09:30:24;22.25;;;10.80;;
21862;SDS011;11096;51.338;12.524;2022-11-20T09:32:50;21.23;;;10.27;;
21862;SDS011;11096;51.338;12.524;2022-11-20T09:35:15;22.50;;;10.65;;
21862;SDS011;11096;51.338;12.524;2022-11-20T09:37:42;22.52;;;9.90;;
21862;SDS011;11096;51.338;12.524;2022-11-20T09:40:16;19.80;;;9.88;;
21862;SDS011;11096;51.338;12.524;2022-11-20T09:45:39;24.15;;;11.32;;
21862;SDS011;11096;51.338;12.524;2022-11-20T09:56:17;19.63;;;9.68;;
21862;SDS011;11096;51.338;12.524;2022-11-20T09:58:45;24.65;;;10.95;;
21862;SDS011;11096;51.338;12.524;2022-11-20T10:01:15;19.25;;;10.15;;
21862;SDS011;11096;51.338;12.524;2022-11-20T10:06:15;20.85;;;11.25;;
21862;SDS011;11096;51.338;12.524;2022-11-20T10:09:18;21.98;;;10.95;;
21862;SDS011;11096;51.338;12.524;2022-11-20T10:14:46;17.83;;;9.68;;
21862;SDS011;11096;51.338;12.524;2022-11-20T10:17:14;22.75;;;9.90;;
21862;SDS011;11096;51.338;12.524;2022-11-20T10:20:12;16.25;;;8.80;;
21862;SDS011;11096;51.338;12.524;2022-11-20T10:25:36;16.40;;;8.65;;
21862;SDS011;11096;51.338;12.524;2022-11-20T10:30:40;16.88;;;9.38;;
21862;SDS011;11096;51.338;12.524;2022-11-20T10:41:03;14.88;;;7.68;;
21862;SDS011;11096;51.338;12.524;2022-11-20T10:43:49;14.88;;;7.40;;
21862;SDS011;11096;51.338;12.524;2022-11-20T10:46:20;20.15;;;8.10;;
21862;SDS011;11096;51.338;12.524;2022-11-20T10:48:49;21.20;;;7.15;;
21862;SDS011;11096;51.338;12.524;2022-11-20T10:57:03;12.88;;;6.35;;
21862;SDS011;11096;51.338;12.524;2022-11-20T11:02:22;15.68;;;7.45;;
21862;SDS011;11096;51.338;12.524;2022-11-20T11:04:50;15.32;;;7.65;;
21862;SDS011;11096;51.338;12.524;2022-11-20T11:07:19;18.92;;;7.93;;
21862;SDS011;11096;51.338;12.524;2022-11-20T11:09:49;11.45;;;6.80;;
21862;SDS011;11096;51.338;12.524;2022-11-20T11:12:17;12.60;;;6.53;;
21862;SDS011;11096;51.338;12.524;2022-11-20T11:14:48;12.25;;;6.75;;
21862;SDS011;11096;51.338;12.524;2022-11-20T11:20:27;13.88;;;7.20;;
21862;SDS011;11096;51.338;12.524;2022-11-20T11:22:50;14.32;;;6.47;;
21862;SDS011;11096;51.338;12.524;2022-11-20T11:25:25;15.10;;;7.07;;
21862;SDS011;11096;51.338;12.524;2022-11-20T11:27:53;13.73;;;7.00;;
21862;SDS011;11096;51.338;12.524;2022-11-20T11:30:21;15.02;;;7.50;;
21862;SDS011;11096;51.338;12.524;2022-11-20T11:32:48;12.73;;;6.80;;
21862;SDS011;11096;51.338;12.524;2022-11-20T11:37:50;14.68;;;7.25;;
21862;SDS011;11096;51.338;12.524;2022-11-20T11:40:19;11.63;;;6.28;;
21862;SDS011;11096;51.338;12.524;2022-11-20T11:42:58;13.32;;;6.63;;
21862;SDS011;11096;51.338;12.524;2022-11-20T11:45:26;17.77;;;6.93;;
21862;SDS011;11096;51.338;12.524;2022-11-20T11:47:52;11.15;;;5.80;;
21862;SDS011;11096;51.338;12.524;2022-11-20T11:50:21;11.77;;;5.75;;
21862;SDS011;11096;51.338;12.524;2022-11-20T11:55:15;13.52;;;6.63;;
21862;SDS011;11096;51.338;12.524;2022-11-20T11:58:51;9.48;;;5.72;;
21862;SDS011;11096;51.338;12.524;2022-11-20T12:00:50;11.00;;;5.30;;
21862;SDS011;11096;51.338;12.524;2022-11-20T12:03:34;8.27;;;4.57;;
21862;SDS011;11096;51.338;12.524;2022-11-20T12:06:06;11.07;;;5.25;;
21862;SDS011;11096;51.338;12.524;2022-11-20T12:11:21;11.00;;;5.55;;
21862;SDS011;11096;51.338;12.524;2022-11-20T12:16:36;10.73;;;5.57;;
21862;SDS011;11096;51.338;12.524;2022-11-20T12:19:04;10.38;;;5.85;;
21862;SDS011;11096;51.338;12.524;2022-11-20T12:29:45;11.55;;;5.53;;
21862;SDS011;11096;51.338;12.524;2022-11-20T12:40:19;10.93;;;5.82;;
21862;SDS011;11096;51.338;12.524;2022-11-20T12:51:44;10.93;;;5.70;;
21862;SDS011;11096;51.338;12.524;2022-11-20T13:00:22;10.80;;;5.28;;
21862;SDS011;11096;51.338;12.524;2022-11-20T13:08:01;12.65;;;6.20;;
21862;SDS011;11096;51.338;12.524;2022-11-20T13:10:31;9.38;;;5.45;;
21862;SDS011;11096;51.338;12.524;2022-11-20T13:13:14;11.65;;;6.05;;
21862;SDS011;11096;51.338;12.524;2022-11-20T13:16:15;12.38;;;5.88;;
21862;SDS011;11096;51.338;12.524;2022-11-20T13:18:45;11.98;;;5.75;;
21862;SDS011;11096;51.338;12.524;2022-11-20T13:21:18;12.93;;;6.13;;
21862;SDS011;11096;51.338;12.524;2022-11-20T13:23:47;11.82;;;6.07;;
21862;SDS011;11096;51.338;12.524;2022-11-20T13:26:20;11.57;;;5.68;;
21862;SDS011;11096;51.338;12.524;2022-11-20T13:28:58;13.25;;;6.32;;
21862;SDS011;11096;51.338;12.524;2022-11-20T13:31:33;14.95;;;5.38;;
21862;SDS011;11096;51.338;12.524;2022-11-20T13:34:01;10.18;;;5.30;;
21862;SDS011;11096;51.338;12.524;2022-11-20T13:36:29;15.35;;;6.57;;
21862;SDS011;11096;51.338;12.524;2022-11-20T13:38:56;12.10;;;6.00;;
21862;SDS011;11096;51.338;12.524;2022-11-20T13:44:10;14.35;;;7.05;;
21862;SDS011;11096;51.338;12.524;2022-11-20T13:46:41;57.83;;;21.90;;
21862;SDS011;11096;51.338;12.524;2022-11-20T13:49:18;15.32;;;7.13;;
21862;SDS011;11096;51.338;12.524;2022-11-20T13:51:56;12.32;;;6.28;;
21862;SDS011;11096;51.338;12.524;2022-11-20T13:57:30;13.45;;;6.10;;
21862;SDS011;11096;51.338;12.524;2022-11-20T14:02:40;12.13;;;6.28;;
21862;SDS011;11096;51.338;12.524;2022-11-20T14:05:11;10.57;;;5.45;;
21862;SDS011;11096;51.338;12.524;2022-11-20T14:08:00;11.57;;;5.32;;
21862;SDS011;11096;51.338;12.524;2022-11-20T14:10:29;10.13;;;5.45;;
21862;SDS011;11096;51.338;12.524;2022-11-20T14:12:55;12.00;;;4.90;;
21862;SDS011;11096;51.338;12.524;2022-11-20T14:15:24;9.45;;;5.32;;
21862;SDS011;11096;51.338;12.524;2022-11-20T14:17:59;9.00;;;5.18;;
21862;SDS011;11096;51.338;12.524;2022-11-20T14:20:36;9.80;;;4.93;;
21862;SDS011;11096;51.338;12.524;2022-11-20T14:23:03;10.30;;;4.65;;
21862;SDS011;11096;51.338;12.524;2022-11-20T14:25:30;11.30;;;5.07;;
21862;SDS011;11096;51.338;12.524;2022-11-20T14:27:57;9.18;;;5.07;;
21862;SDS011;11096;51.338;12.524;2022-11-20T14:30:24;11.18;;;5.65;;
21862;SDS011;11096;51.338;12.524;2022-11-20T14:32:53;8.38;;;4.57;;
21862;SDS011;11096;51.338;12.524;2022-11-20T14:35:23;9.15;;;4.78;;
21862;SDS011;11096;51.338;12.524;2022-11-20T14:37:51;12.25;;;5.90;;
21862;SDS011;11096;51.338;12.524;2022-11-20T14:40:24;19.35;;;6.97;;
21862;SDS011;11096;51.338;12.524;2022-11-20T14:43:15;41.85;;;13.85;;
21862;SDS011;11096;51.338;12.524;2022-11-20T14:45:54;17.65;;;7.82;;
21862;SDS011;11096;51.338;12.524;2022-11-20T14:51:10;18.13;;;7.55;;
21862;SDS011;11096;51.338;12.524;2022-11-20T14:53:36;23.77;;;10.20;;
21862;SDS011;11096;51.338;12.524;2022-11-20T14:56:02;21.48;;;8.05;;
21862;SDS011;11096;51.338;12.524;2022-11-20T14:58:29;17.88;;;8.00;;
21862;SDS011;11096;51.338;12.524;2022-11-20T15:01:06;18.52;;;7.35;;
21862;SDS011;11096;51.338;12.524;2022-11-20T15:03:33;15.65;;;7.90;;
21862;SDS011;11096;51.338;12.524;2022-11-20T15:06:03;18.33;;;8.85;;
21862;SDS011;11096;51.338;12.524;2022-11-20T15:08:30;13.50;;;7.63;;
21862;SDS011;11096;51.338;12.524;2022-11-20T15:10:55;15.88;;;6.93;;
21862;SDS011;11096;51.338;12.524;2022-11-20T15:13:37;11.40;;;6.78;;
21862;SDS011;11096;51.338;12.524;2022-11-20T15:16:08;16.08;;;7.40;;
21862;SDS011;11096;51.338;12.524;2022-11-20T15:19:01;11.05;;;6.80;;
21862;SDS011;11096;51.338;12.524;2022-11-20T15:21:28;12.05;;;6.32;;
21862;SDS011;11096;51.338;12.524;2022-11-20T15:23:54;15.70;;;6.88;;
21862;SDS011;11096;51.338;12.524;2022-11-20T15:26:26;14.70;;;7.03;;
21862;SDS011;11096;51.338;12.524;2022-11-20T15:28:52;14.65;;;6.57;;
21862;SDS011;11096;51.338;12.524;2022-11-20T15:31:19;14.88;;;6.82;;
21862;SDS011;11096;51.338;12.524;2022-11-20T15:33:47;16.73;;;7.20;;
21862;SDS011;11096;51.338;12.524;2022-11-20T15:36:13;12.13;;;6.28;;
21862;SDS011;11096;51.338;12.524;2022-11-20T15:38:38;13.40;;;7.07;;
21862;SDS011;11096;51.338;12.524;2022-11-20T15:41:04;14.27;;;6.00;;
21862;SDS011;11096;51.338;12.524;2022-11-20T15:43:29;12.35;;;6.80;;
21862;SDS011;11096;51.338;12.524;2022-11-20T15:45:56;14.35;;;6.43;;
21862;SDS011;11096;51.338;12.524;2022-11-20T15:48:27;13.90;;;5.93;;
21862;SDS011;11096;51.338;12.524;2022-11-20T15:51:11;13.75;;;6.93;;
21862;SDS011;11096;51.338;12.524;2022-11-20T15:53:44;15.18;;;6.75;;
21862;SDS011;11096;51.338;12.524;2022-11-20T15:56:12;12.02;;;5.88;;
21862;SDS011;11096;51.338;12.524;2022-11-20T15:58:38;13.90;;;6.32;;
21862;SDS011;11096;51.338;12.524;2022-11-20T16:01:04;17.05;;;7.75;;
21862;SDS011;11096;51.338;12.524;2022-11-20T16:03:30;13.23;;;6.35;;
21862;SDS011;11096;51.338;12.524;2022-11-20T16:05:55;15.77;;;6.78;;
21862;SDS011;11096;51.338;12.524;2022-11-20T16:08:21;10.57;;;5.50;;
21862;SDS011;11096;51.338;12.524;2022-11-20T16:10:46;11.90;;;6.25;;